sensor_id;sensor_type;location;lat;lon;timestamp;pressure;altitude;pressure_sealevel;temperature;humidity
77893;BME280;67087;50.094;14.338;2023-07-24T00:01:40;97407.11;;;28.57;22.77
77893;BME280;67087;50.094;14.338;2023-07-24T00:04:05;97398.99;;;28.79;22.30
77893;BME280;67087;50.094;14.338;2023-07-24T00:06:30;97395.23;;;28.35;21.82
77893;BME280;67087;50.094;14.338;2023-07-24T00:08:55;97396.80;;;28.93;22.15
77893;BME280;67087;50.094;14.338;2023-07-24T00:11:20;97396.84;;;29.01;22.10
77893;BME280;67087;50.094;14.338;2023-07-24T00:13:45;97392.59;;;28.95;21.71
77893;BME280;67087;50.094;14.338;2023-07-24T00:16:10;97394.06;;;28.87;22.30
77893;BME280;67087;50.094;14.338;2023-07-24T00:18:36;97391.42;;;28.68;22.03
77893;BME280;67087;50.094;14.338;2023-07-24T00:21:01;97386.05;;;28.80;22.62
77893;BME280;67087;50.094;14.338;2023-07-24T00:23:26;97383.29;;;28.35;22.30
77893;BME280;67087;50.094;14.338;2023-07-24T00:25:51;97385.03;;;28.83;22.49
77893;BME280;67087;50.094;14.338;2023-07-24T00:28:16;97384.63;;;28.84;22.59
77893;BME280;67087;50.094;14.338;2023-07-24T00:30:42;97383.37;;;28.52;22.59
77893;BME280;67087;50.094;14.338;2023-07-24T00:33:06;97381.29;;;29.11;22.01
77893;BME280;67087;50.094;14.338;2023-07-24T00:35:31;97377.68;;;28.43;22.10
77893;BME280;67087;50.094;14.338;2023-07-24T00:37:56;97372.81;;;28.58;22.60
77893;BME280;67087;50.094;14.338;2023-07-24T00:40:21;97372.08;;;29.29;22.05
77893;BME280;67087;50.094;14.338;2023-07-24T00:42:47;97374.24;;;28.71;22.66
77893;BME280;67087;50.094;14.338;2023-07-24T00:45:11;97373.30;;;28.96;22.15
77893;BME280;67087;50.094;14.338;2023-07-24T00:47:36;97370.18;;;28.49;22.87
77893;BME280;67087;50.094;14.338;2023-07-24T00:50:01;97372.93;;;29.03;22.82
77893;BME280;67087;50.094;14.338;2023-07-24T00:52:27;97377.14;;;28.27;22.84
77893;BME280;67087;50.094;14.338;2023-07-24T00:54:51;97377.13;;;28.86;22.96
77893;BME280;67087;50.094;14.338;2023-07-24T00:57:16;97375.55;;;28.71;23.29
77893;BME280;67087;50.094;14.338;2023-07-24T00:59:42;97377.44;;;28.91;22.63
77893;BME280;67087;50.094;14.338;2023-07-24T01:02:06;97385.05;;;28.80;22.49
77893;BME280;67087;50.094;14.338;2023-07-24T01:04:31;97384.38;;;28.32;23.07
77893;BME280;67087;50.094;14.338;2023-07-24T01:06:56;97386.68;;;28.72;23.11
77893;BME280;67087;50.094;14.338;2023-07-24T01:09:22;97390.64;;;28.71;22.50
77893;BME280;67087;50.094;14.338;2023-07-24T01:11:50;97389.67;;;28.77;22.67
77893;BME280;67087;50.094;14.338;2023-07-24T01:14:16;97387.32;;;29.03;22.10
77893;BME280;67087;50.094;14.338;2023-07-24T01:16:38;97392.83;;;28.49;23.25
77893;BME280;67087;50.094;14.338;2023-07-24T01:19:04;97393.22;;;28.68;22.60
77893;BME280;67087;50.094;14.338;2023-07-24T01:21:33;97394.17;;;28.85;22.62
77893;BME280;67087;50.094;14.338;2023-07-24T01:23:58;97395.35;;;28.71;23.03
77893;BME280;67087;50.094;14.338;2023-07-24T01:26:17;97394.89;;;28.71;22.74
77893;BME280;67087;50.094;14.338;2023-07-24T01:28:42;97392.76;;;29.05;22.17
77893;BME280;67087;50.094;14.338;2023-07-24T01:31:07;97390.08;;;28.80;22.39
77893;BME280;67087;50.094;14.338;2023-07-24T01:33:32;97385.73;;;28.01;22.67
77893;BME280;67087;50.094;14.338;2023-07-24T01:35:58;97383.18;;;28.84;22.51
77893;BME280;67087;50.094;14.338;2023-07-24T01:38:24;97384.23;;;28.89;22.36
77893;BME280;67087;50.094;14.338;2023-07-24T01:40:48;97373.66;;;28.57;22.51
77893;BME280;67087;50.094;14.338;2023-07-24T01:43:13;97366.62;;;28.80;22.21
77893;BME280;67087;50.094;14.338;2023-07-24T01:45:38;97360.09;;;28.32;22.42
77893;BME280;67087;50.094;14.338;2023-07-24T01:48:03;97352.35;;;28.72;22.56
77893;BME280;67087;50.094;14.338;2023-07-24T01:50:28;97350.45;;;28.20;22.69
77893;BME280;67087;50.094;14.338;2023-07-24T01:52:53;97360.23;;;29.09;22.49
77893;BME280;67087;50.094;14.338;2023-07-24T01:55:18;97361.59;;;28.91;22.39
77893;BME280;67087;50.094;14.338;2023-07-24T01:57:43;97347.92;;;28.80;22.22
77893;BME280;67087;50.094;14.338;2023-07-24T02:00:09;97333.68;;;28.72;22.45
77893;BME280;67087;50.094;14.338;2023-07-24T02:02:33;97324.12;;;28.58;22.48
77893;BME280;67087;50.094;14.338;2023-07-24T02:04:58;97326.94;;;28.96;23.35
77893;BME280;67087;50.094;14.338;2023-07-24T02:07:23;97324.80;;;28.71;22.51
77893;BME280;67087;50.094;14.338;2023-07-24T02:09:48;97323.42;;;28.56;22.66
77893;BME280;67087;50.094;14.338;2023-07-24T02:12:13;97322.49;;;28.67;23.08
77893;BME280;67087;50.094;14.338;2023-07-24T02:14:38;97328.91;;;28.44;23.02
77893;BME280;67087;50.094;14.338;2023-07-24T02:17:03;97330.91;;;29.02;22.73
77893;BME280;67087;50.094;14.338;2023-07-24T02:19:28;97332.82;;;28.00;22.61
77893;BME280;67087;50.094;14.338;2023-07-24T02:21:53;97342.33;;;28.72;22.44
77893;BME280;67087;50.094;14.338;2023-07-24T02:24:18;97355.07;;;28.76;22.18
77893;BME280;67087;50.094;14.338;2023-07-24T02:26:43;97369.73;;;28.47;22.48
77893;BME280;67087;50.094;14.338;2023-07-24T02:29:08;97373.31;;;28.50;22.94
77893;BME280;67087;50.094;14.338;2023-07-24T02:31:33;97377.23;;;28.70;22.88
77893;BME280;67087;50.094;14.338;2023-07-24T02:33:58;97385.07;;;28.71;22.84
77893;BME280;67087;50.094;14.338;2023-07-24T02:36:24;97383.79;;;28.76;23.48
77893;BME280;67087;50.094;14.338;2023-07-24T02:38:48;97383.47;;;28.53;23.46
77893;BME280;67087;50.094;14.338;2023-07-24T02:41:13;97376.29;;;28.63;23.36
77893;BME280;67087;50.094;14.338;2023-07-24T02:43:38;97371.51;;;28.37;23.15
77893;BME280;67087;50.094;14.338;2023-07-24T02:46:04;97368.24;;;28.65;23.22
77893;BME280;67087;50.094;14.338;2023-07-24T02:48:29;97370.28;;;28.24;22.85
77893;BME280;67087;50.094;14.338;2023-07-24T02:50:54;97370.95;;;29.14;23.03
77893;BME280;67087;50.094;14.338;2023-07-24T02:53:19;97376.11;;;28.76;23.02
77893;BME280;67087;50.094;14.338;2023-07-24T02:55:44;97381.39;;;28.57;22.89
77893;BME280;67087;50.094;14.338;2023-07-24T02:58:10;97388.85;;;28.71;23.10
77893;BME280;67087;50.094;14.338;2023-07-24T03:00:34;97389.89;;;28.36;23.28
77893;BME280;67087;50.094;14.338;2023-07-24T03:02:59;97393.06;;;28.59;23.01
77893;BME280;67087;50.094;14.338;2023-07-24T03:05:24;97386.92;;;28.67;22.75
77893;BME280;67087;50.094;14.338;2023-07-24T03:07:49;97383.94;;;28.61;22.64
77893;BME280;67087;50.094;14.338;2023-07-24T03:10:14;97379.59;;;28.95;23.08
77893;BME280;67087;50.094;14.338;2023-07-24T03:12:39;97376.94;;;28.61;23.15
77893;BME280;67087;50.094;14.338;2023-07-24T03:15:06;97370.21;;;28.55;23.09
77893;BME280;67087;50.094;14.338;2023-07-24T03:17:30;97359.07;;;28.17;23.14
77893;BME280;67087;50.094;14.338;2023-07-24T03:19:55;97353.18;;;28.72;23.18
77893;BME280;67087;50.094;14.338;2023-07-24T03:22:20;97348.87;;;28.59;23.66
77893;BME280;67087;50.094;14.338;2023-07-24T03:24:45;97357.59;;;28.57;23.32
77893;BME280;67087;50.094;14.338;2023-07-24T03:27:10;97353.47;;;28.87;22.87
77893;BME280;67087;50.094;14.338;2023-07-24T03:29:35;97364.74;;;28.55;23.48
77893;BME280;67087;50.094;14.338;2023-07-24T03:32:00;97362.78;;;29.16;22.74
77893;BME280;67087;50.094;14.338;2023-07-24T03:34:25;97360.54;;;28.59;23.69
77893;BME280;67087;50.094;14.338;2023-07-24T03:36:50;97355.31;;;28.72;23.38
77893;BME280;67087;50.094;14.338;2023-07-24T03:39:15;97363.05;;;28.65;23.62
77893;BME280;67087;50.094;14.338;2023-07-24T03:41:42;97353.99;;;28.47;23.98
77893;BME280;67087;50.094;14.338;2023-07-24T03:44:05;97345.88;;;29.00;24.01
77893;BME280;67087;50.094;14.338;2023-07-24T03:46:31;97327.66;;;28.47;23.41
77893;BME280;67087;50.094;14.338;2023-07-24T03:48:55;97322.18;;;28.94;23.66
77893;BME280;67087;50.094;14.338;2023-07-24T03:51:20;97319.86;;;29.14;23.77
77893;BME280;67087;50.094;14.338;2023-07-24T03:53:46;97312.39;;;29.21;23.43
77893;BME280;67087;50.094;14.338;2023-07-24T03:56:10;97316.38;;;29.35;23.65
77893;BME280;67087;50.094;14.338;2023-07-24T03:58:36;97310.97;;;28.51;24.23
77893;BME280;67087;50.094;14.338;2023-07-24T04:01:00;97313.57;;;29.11;23.57
77893;BME280;67087;50.094;14.338;2023-07-24T04:03:26;97309.88;;;28.64;24.04
77893;BME280;67087;50.094;14.338;2023-07-24T04:05:50;97311.71;;;29.06;24.42
77893;BME280;67087;50.094;14.338;2023-07-24T04:08:16;97312.48;;;28.69;24.29
77893;BME280;67087;50.094;14.338;2023-07-24T04:10:41;97306.55;;;28.46;24.60
77893;BME280;67087;50.094;14.338;2023-07-24T04:13:06;97308.83;;;29.03;24.40
77893;BME280;67087;50.094;14.338;2023-07-24T04:15:31;97297.33;;;28.34;24.57
77893;BME280;67087;50.094;14.338;2023-07-24T04:17:56;97301.76;;;28.77;24.57
77893;BME280;67087;50.094;14.338;2023-07-24T04:20:21;97293.15;;;28.84;24.92
77893;BME280;67087;50.094;14.338;2023-07-24T04:22:46;97285.06;;;29.28;24.42
77893;BME280;67087;50.094;14.338;2023-07-24T04:25:11;97275.57;;;28.93;24.76
77893;BME280;67087;50.094;14.338;2023-07-24T04:27:36;97265.04;;;28.48;24.85
77893;BME280;67087;50.094;14.338;2023-07-24T04:30:01;97264.42;;;29.19;24.59
77893;BME280;67087;50.094;14.338;2023-07-24T04:32:26;97247.38;;;29.01;24.50
77893;BME280;67087;50.094;14.338;2023-07-24T04:34:52;97222.79;;;29.86;23.61
77893;BME280;67087;50.094;14.338;2023-07-24T04:37:17;97243.69;;;29.39;23.95
77893;BME280;67087;50.094;14.338;2023-07-24T04:39:42;97230.22;;;29.37;23.94
77893;BME280;67087;50.094;14.338;2023-07-24T04:42:07;97261.05;;;29.48;24.08
77893;BME280;67087;50.094;14.338;2023-07-24T04:44:32;97254.60;;;28.85;24.36
77893;BME280;67087;50.094;14.338;2023-07-24T04:46:57;97259.19;;;29.78;24.09
77893;BME280;67087;50.094;14.338;2023-07-24T04:49:22;97256.56;;;29.10;24.37
77893;BME280;67087;50.094;14.338;2023-07-24T04:51:47;97255.55;;;28.42;24.77
77893;BME280;67087;50.094;14.338;2023-07-24T04:54:12;97256.55;;;29.42;24.22
77893;BME280;67087;50.094;14.338;2023-07-24T04:56:37;97261.84;;;28.96;24.15
77893;BME280;67087;50.094;14.338;2023-07-24T04:59:02;97267.18;;;28.87;24.74
77893;BME280;67087;50.094;14.338;2023-07-24T05:01:28;97269.52;;;27.93;25.38
77893;BME280;67087;50.094;14.338;2023-07-24T05:03:52;97266.41;;;28.71;25.01
77893;BME280;67087;50.094;14.338;2023-07-24T05:06:17;97260.50;;;28.94;24.99
77893;BME280;67087;50.094;14.338;2023-07-24T05:08:42;97262.32;;;28.19;25.47
77893;BME280;67087;50.094;14.338;2023-07-24T05:11:08;97252.54;;;29.20;24.44
77893;BME280;67087;50.094;14.338;2023-07-24T05:13:33;97252.75;;;28.23;24.40
77893;BME280;67087;50.094;14.338;2023-07-24T05:15:58;97256.14;;;29.29;24.39
77893;BME280;67087;50.094;14.338;2023-07-24T05:18:24;97255.68;;;28.61;24.62
77893;BME280;67087;50.094;14.338;2023-07-24T05:20:49;97255.87;;;28.81;24.60
77893;BME280;67087;50.094;14.338;2023-07-24T05:23:14;97258.97;;;29.21;24.34
77893;BME280;67087;50.094;14.338;2023-07-24T05:25:38;97255.21;;;28.35;24.67
77893;BME280;67087;50.094;14.338;2023-07-24T05:28:04;97257.19;;;27.87;25.17
77893;BME280;67087;50.094;14.338;2023-07-24T05:30:29;97246.24;;;27.99;24.48
77893;BME280;67087;50.094;14.338;2023-07-24T05:32:54;97248.16;;;29.23;23.97
77893;BME280;67087;50.094;14.338;2023-07-24T05:35:19;97247.65;;;29.09;24.49
77893;BME280;67087;50.094;14.338;2023-07-24T05:37:44;97243.11;;;28.63;24.41
77893;BME280;67087;50.094;14.338;2023-07-24T05:40:09;97243.42;;;28.94;24.12
77893;BME280;67087;50.094;14.338;2023-07-24T05:42:34;97248.70;;;28.39;24.73
77893;BME280;67087;50.094;14.338;2023-07-24T05:44:59;97256.49;;;28.70;24.46
77893;BME280;67087;50.094;14.338;2023-07-24T05:47:25;97253.20;;;28.29;24.97
77893;BME280;67087;50.094;14.338;2023-07-24T05:49:50;97253.38;;;27.95;25.24
77893;BME280;67087;50.094;14.338;2023-07-24T05:52:15;97253.37;;;28.50;25.15
77893;BME280;67087;50.094;14.338;2023-07-24T05:54:40;97254.91;;;28.17;25.62
77893;BME280;67087;50.094;14.338;2023-07-24T05:57:06;97252.59;;;28.49;25.38
77893;BME280;67087;50.094;14.338;2023-07-24T05:59:31;97249.07;;;27.42;25.84
77893;BME280;67087;50.094;14.338;2023-07-24T06:01:56;97254.22;;;28.01;25.60
77893;BME280;67087;50.094;14.338;2023-07-24T06:04:20;97255.71;;;27.53;26.24
77893;BME280;67087;50.094;14.338;2023-07-24T06:06:46;97250.60;;;28.18;25.53
77893;BME280;67087;50.094;14.338;2023-07-24T06:09:11;97248.62;;;27.93;26.50
77893;BME280;67087;50.094;14.338;2023-07-24T06:11:36;97249.57;;;27.59;26.88
77893;BME280;67087;50.094;14.338;2023-07-24T06:14:01;97250.91;;;28.63;25.44
77893;BME280;67087;50.094;14.338;2023-07-24T06:16:27;97247.25;;;28.24;25.37
77893;BME280;67087;50.094;14.338;2023-07-24T06:18:52;97247.18;;;27.93;26.58
77893;BME280;67087;50.094;14.338;2023-07-24T06:21:17;97242.18;;;28.46;27.18
77893;BME280;67087;50.094;14.338;2023-07-24T06:23:42;97248.55;;;28.03;25.96
77893;BME280;67087;50.094;14.338;2023-07-24T06:26:08;97247.79;;;28.82;25.54
77893;BME280;67087;50.094;14.338;2023-07-24T06:28:33;97247.37;;;27.58;26.08
77893;BME280;67087;50.094;14.338;2023-07-24T06:30:58;97258.66;;;28.20;26.25
77893;BME280;67087;50.094;14.338;2023-07-24T06:33:24;97258.04;;;28.15;26.44
77893;BME280;67087;50.094;14.338;2023-07-24T06:35:49;97263.13;;;27.77;26.90
77893;BME280;67087;50.094;14.338;2023-07-24T06:38:14;97260.62;;;28.07;26.85
77893;BME280;67087;50.094;14.338;2023-07-24T06:40:40;97256.56;;;28.00;26.42
77893;BME280;67087;50.094;14.338;2023-07-24T06:43:04;97259.17;;;28.34;26.20
77893;BME280;67087;50.094;14.338;2023-07-24T06:45:30;97258.24;;;27.50;26.71
77893;BME280;67087;50.094;14.338;2023-07-24T06:47:54;97259.90;;;28.33;26.50
77893;BME280;67087;50.094;14.338;2023-07-24T06:50:19;97257.15;;;28.09;26.45
77893;BME280;67087;50.094;14.338;2023-07-24T06:52:44;97252.27;;;28.16;26.24
77893;BME280;67087;50.094;14.338;2023-07-24T06:55:10;97251.73;;;28.07;26.28
77893;BME280;67087;50.094;14.338;2023-07-24T06:57:35;97237.72;;;27.39;27.06
77893;BME280;67087;50.094;14.338;2023-07-24T07:00:00;97229.66;;;27.77;27.57
77893;BME280;67087;50.094;14.338;2023-07-24T07:02:25;97224.87;;;28.37;26.49
77893;BME280;67087;50.094;14.338;2023-07-24T07:04:50;97213.76;;;28.34;26.57
77893;BME280;67087;50.094;14.338;2023-07-24T07:07:15;97206.36;;;28.25;27.10
77893;BME280;67087;50.094;14.338;2023-07-24T07:09:41;97201.93;;;28.45;27.32
77893;BME280;67087;50.094;14.338;2023-07-24T07:12:07;97203.57;;;28.36;27.20
77893;BME280;67087;50.094;14.338;2023-07-24T07:14:31;97201.87;;;28.00;27.30
77893;BME280;67087;50.094;14.338;2023-07-24T07:16:56;97206.75;;;28.44;27.24
77893;BME280;67087;50.094;14.338;2023-07-24T07:19:21;97212.37;;;28.40;26.72
77893;BME280;67087;50.094;14.338;2023-07-24T07:21:47;97227.83;;;28.34;26.70
77893;BME280;67087;50.094;14.338;2023-07-24T07:24:13;97220.75;;;28.37;26.60
77893;BME280;67087;50.094;14.338;2023-07-24T07:26:38;97229.40;;;28.23;26.62
77893;BME280;67087;50.094;14.338;2023-07-24T07:29:03;97234.99;;;28.81;26.17
77893;BME280;67087;50.094;14.338;2023-07-24T07:31:29;97233.54;;;28.32;26.04
77893;BME280;67087;50.094;14.338;2023-07-24T07:33:53;97229.46;;;28.26;27.22
77893;BME280;67087;50.094;14.338;2023-07-24T07:36:18;97227.85;;;28.54;27.13
77893;BME280;67087;50.094;14.338;2023-07-24T07:38:43;97230.91;;;28.68;26.72
77893;BME280;67087;50.094;14.338;2023-07-24T07:41:08;97239.06;;;28.85;26.11
77893;BME280;67087;50.094;14.338;2023-07-24T07:43:34;97249.59;;;28.20;26.51
77893;BME280;67087;50.094;14.338;2023-07-24T07:45:59;97240.70;;;28.65;26.47
77893;BME280;67087;50.094;14.338;2023-07-24T07:48:24;97238.54;;;28.24;26.77
77893;BME280;67087;50.094;14.338;2023-07-24T07:50:50;97250.72;;;28.10;26.62
77893;BME280;67087;50.094;14.338;2023-07-24T07:53:14;97253.63;;;28.49;27.00
77893;BME280;67087;50.094;14.338;2023-07-24T07:55:39;97256.64;;;27.80;27.24
77893;BME280;67087;50.094;14.338;2023-07-24T07:58:05;97261.32;;;28.65;26.37
77893;BME280;67087;50.094;14.338;2023-07-24T08:00:30;97255.65;;;28.10;26.73
77893;BME280;67087;50.094;14.338;2023-07-24T08:02:55;97252.49;;;28.35;27.37
77893;BME280;67087;50.094;14.338;2023-07-24T08:05:20;97260.46;;;28.34;26.61
77893;BME280;67087;50.094;14.338;2023-07-24T08:07:45;97267.49;;;28.33;26.98
77893;BME280;67087;50.094;14.338;2023-07-24T08:10:10;97258.11;;;28.57;26.46
77893;BME280;67087;50.094;14.338;2023-07-24T08:12:35;97236.36;;;28.47;25.56
77893;BME280;67087;50.094;14.338;2023-07-24T08:15:00;97222.73;;;28.37;26.77
77893;BME280;67087;50.094;14.338;2023-07-24T08:17:26;97213.08;;;28.38;26.02
77893;BME280;67087;50.094;14.338;2023-07-24T08:19:50;97208.62;;;27.99;27.17
77893;BME280;67087;50.094;14.338;2023-07-24T08:22:15;97204.08;;;28.66;26.41
77893;BME280;67087;50.094;14.338;2023-07-24T08:24:41;97200.03;;;28.56;25.73
77893;BME280;67087;50.094;14.338;2023-07-24T08:27:06;97196.82;;;28.37;26.78
77893;BME280;67087;50.094;14.338;2023-07-24T08:29:32;97187.06;;;27.82;26.26
77893;BME280;67087;50.094;14.338;2023-07-24T08:31:57;97179.55;;;28.72;26.96
77893;BME280;67087;50.094;14.338;2023-07-24T08:34:23;97173.01;;;28.97;26.78
77893;BME280;67087;50.094;14.338;2023-07-24T08:36:48;97163.75;;;27.95;27.71
77893;BME280;67087;50.094;14.338;2023-07-24T08:39:13;97155.92;;;28.28;26.75
77893;BME280;67087;50.094;14.338;2023-07-24T08:41:38;97153.01;;;28.27;26.59
77893;BME280;67087;50.094;14.338;2023-07-24T08:44:05;97154.28;;;28.48;26.25
77893;BME280;67087;50.094;14.338;2023-07-24T08:46:29;97148.39;;;27.86;26.05
77893;BME280;67087;50.094;14.338;2023-07-24T08:48:54;97151.85;;;28.48;25.92
77893;BME280;67087;50.094;14.338;2023-07-24T08:51:19;97154.46;;;28.27;26.04
77893;BME280;67087;50.094;14.338;2023-07-24T08:53:44;97152.53;;;28.28;25.90
77893;BME280;67087;50.094;14.338;2023-07-24T08:56:10;97156.67;;;28.23;25.86
77893;BME280;67087;50.094;14.338;2023-07-24T08:58:35;97152.08;;;27.71;26.02
77893;BME280;67087;50.094;14.338;2023-07-24T09:01:00;97150.75;;;28.19;25.95
77893;BME280;67087;50.094;14.338;2023-07-24T09:03:25;97148.63;;;28.05;26.22
77893;BME280;67087;50.094;14.338;2023-07-24T09:05:49;97146.83;;;28.57;25.50
77893;BME280;67087;50.094;14.338;2023-07-24T09:08:14;97142.58;;;28.52;25.45
77893;BME280;67087;50.094;14.338;2023-07-24T09:10:40;97144.35;;;28.25;25.86
77893;BME280;67087;50.094;14.338;2023-07-24T09:13:05;97144.19;;;28.59;25.66
77893;BME280;67087;50.094;14.338;2023-07-24T09:15:40;97139.82;;;27.90;25.66
77893;BME280;67087;50.094;14.338;2023-07-24T09:17:55;97141.39;;;28.77;25.47
77893;BME280;67087;50.094;14.338;2023-07-24T09:20:21;97138.04;;;28.63;25.56
77893;BME280;67087;50.094;14.338;2023-07-24T09:22:49;97141.78;;;28.12;25.68
77893;BME280;67087;50.094;14.338;2023-07-24T09:25:11;97137.90;;;28.76;25.46
77893;BME280;67087;50.094;14.338;2023-07-24T09:27:36;97143.44;;;27.41;25.85
77893;BME280;67087;50.094;14.338;2023-07-24T09:30:02;97138.54;;;28.19;25.62
77893;BME280;67087;50.094;14.338;2023-07-24T09:32:28;97144.91;;;28.37;25.49
77893;BME280;67087;50.094;14.338;2023-07-24T09:34:53;97135.26;;;28.58;25.17
77893;BME280;67087;50.094;14.338;2023-07-24T09:37:25;97135.80;;;28.82;25.14
77893;BME280;67087;50.094;14.338;2023-07-24T09:39:46;97135.54;;;28.77;24.97
77893;BME280;67087;50.094;14.338;2023-07-24T09:42:08;97132.40;;;28.36;25.38
77893;BME280;67087;50.094;14.338;2023-07-24T09:44:33;97131.79;;;28.32;25.36
77893;BME280;67087;50.094;14.338;2023-07-24T09:46:59;97129.89;;;28.81;25.94
77893;BME280;67087;50.094;14.338;2023-07-24T09:49:24;97125.11;;;29.36;25.66
77893;BME280;67087;50.094;14.338;2023-07-24T09:51:51;97126.77;;;29.00;25.56
77893;BME280;67087;50.094;14.338;2023-07-24T09:54:19;97126.77;;;28.87;25.72
77893;BME280;67087;50.094;14.338;2023-07-24T09:56:40;97121.95;;;28.86;25.51
77893;BME280;67087;50.094;14.338;2023-07-24T09:59:06;97123.85;;;29.05;25.16
77893;BME280;67087;50.094;14.338;2023-07-24T10:01:31;97120.07;;;28.40;25.27
77893;BME280;67087;50.094;14.338;2023-07-24T10:03:55;97117.31;;;29.45;24.97
77893;BME280;67087;50.094;14.338;2023-07-24T10:06:21;97118.90;;;28.85;25.30
77893;BME280;67087;50.094;14.338;2023-07-24T10:08:46;97119.64;;;29.22;24.92
77893;BME280;67087;50.094;14.338;2023-07-24T10:11:12;97116.97;;;29.04;24.99
77893;BME280;67087;50.094;14.338;2023-07-24T10:13:36;97118.32;;;28.69;25.29
77893;BME280;67087;50.094;14.338;2023-07-24T10:16:02;97117.07;;;29.02;25.12
77893;BME280;67087;50.094;14.338;2023-07-24T10:18:28;97120.68;;;28.24;25.20
77893;BME280;67087;50.094;14.338;2023-07-24T10:21:00;97113.72;;;28.66;24.96
77893;BME280;67087;50.094;14.338;2023-07-24T10:23:17;97118.53;;;28.82;25.38
77893;BME280;67087;50.094;14.338;2023-07-24T10:25:44;97110.50;;;28.87;25.07
77893;BME280;67087;50.094;14.338;2023-07-24T10:28:08;97114.87;;;29.36;25.16
77893;BME280;67087;50.094;14.338;2023-07-24T10:30:33;97120.45;;;27.89;25.73
77893;BME280;67087;50.094;14.338;2023-07-24T10:33:04;97121.65;;;28.66;25.18
77893;BME280;67087;50.094;14.338;2023-07-24T10:35:23;97116.12;;;28.90;25.03
77893;BME280;67087;50.094;14.338;2023-07-24T10:40:18;97106.41;;;28.65;24.95
77893;BME280;67087;50.094;14.338;2023-07-24T10:42:38;97106.69;;;28.54;25.18
77893;BME280;67087;50.094;14.338;2023-07-24T10:45:06;97100.86;;;28.76;24.90
77893;BME280;67087;50.094;14.338;2023-07-24T10:47:29;97098.76;;;28.17;24.95
77893;BME280;67087;50.094;14.338;2023-07-24T10:49:54;97102.75;;;28.30;25.46
77893;BME280;67087;50.094;14.338;2023-07-24T10:52:27;97103.38;;;28.77;24.90
77893;BME280;67087;50.094;14.338;2023-07-24T10:54:45;97092.41;;;28.45;24.51
77893;BME280;67087;50.094;14.338;2023-07-24T10:57:10;97093.05;;;28.29;24.77
77893;BME280;67087;50.094;14.338;2023-07-24T10:59:37;97085.19;;;27.92;24.58
77893;BME280;67087;50.094;14.338;2023-07-24T11:02:00;97072.02;;;28.61;23.96
77893;BME280;67087;50.094;14.338;2023-07-24T11:04:25;97072.81;;;28.15;24.41
77893;BME280;67087;50.094;14.338;2023-07-24T11:06:52;97069.19;;;28.99;23.97
77893;BME280;67087;50.094;14.338;2023-07-24T11:09:15;97069.86;;;28.54;24.14
77893;BME280;67087;50.094;14.338;2023-07-24T11:11:40;97071.94;;;28.50;24.27
77893;BME280;67087;50.094;14.338;2023-07-24T11:14:05;97071.68;;;28.55;24.34
77893;BME280;67087;50.094;14.338;2023-07-24T11:16:30;97061.80;;;27.99;24.43
77893;BME280;67087;50.094;14.338;2023-07-24T11:18:55;97066.89;;;28.53;24.42
77893;BME280;67087;50.094;14.338;2023-07-24T11:21:20;97073.17;;;28.62;24.46
77893;BME280;67087;50.094;14.338;2023-07-24T11:23:47;97078.17;;;28.74;24.38
77893;BME280;67087;50.094;14.338;2023-07-24T11:26:10;97058.09;;;28.55;24.58
77893;BME280;67087;50.094;14.338;2023-07-24T11:28:39;97056.27;;;28.44;24.50
77893;BME280;67087;50.094;14.338;2023-07-24T11:31:02;97056.35;;;28.75;24.49
77893;BME280;67087;50.094;14.338;2023-07-24T11:33:27;97050.70;;;28.18;24.89
77893;BME280;67087;50.094;14.338;2023-07-24T11:35:51;97046.16;;;28.60;24.80
77893;BME280;67087;50.094;14.338;2023-07-24T11:38:16;97045.79;;;28.47;25.19
77893;BME280;67087;50.094;14.338;2023-07-24T11:40:43;97036.89;;;28.05;25.04
77893;BME280;67087;50.094;14.338;2023-07-24T11:43:15;97030.63;;;29.04;24.83
77893;BME280;67087;50.094;14.338;2023-07-24T11:45:41;97030.36;;;27.63;25.01
77893;BME280;67087;50.094;14.338;2023-07-24T11:47:56;97036.17;;;28.69;25.09
77893;BME280;67087;50.094;14.338;2023-07-24T11:50:23;97017.87;;;28.50;25.52
77893;BME280;67087;50.094;14.338;2023-07-24T11:52:48;97015.72;;;28.54;25.11
77893;BME280;67087;50.094;14.338;2023-07-24T11:55:13;97009.57;;;28.99;25.01
77893;BME280;67087;50.094;14.338;2023-07-24T11:57:37;97006.07;;;28.05;25.26
77893;BME280;67087;50.094;14.338;2023-07-24T12:00:03;97002.58;;;28.61;25.31
77893;BME280;67087;50.094;14.338;2023-07-24T12:02:28;96992.08;;;28.14;24.87
77893;BME280;67087;50.094;14.338;2023-07-24T12:04:58;96991.28;;;28.79;25.02
77893;BME280;67087;50.094;14.338;2023-07-24T12:07:17;96985.18;;;28.58;25.24
77893;BME280;67087;50.094;14.338;2023-07-24T12:09:50;96986.51;;;28.08;25.33
77893;BME280;67087;50.094;14.338;2023-07-24T12:12:08;96981.46;;;28.58;25.28
77893;BME280;67087;50.094;14.338;2023-07-24T12:14:32;96982.47;;;27.51;25.42
77893;BME280;67087;50.094;14.338;2023-07-24T12:17:01;96972.20;;;28.64;25.32
77893;BME280;67087;50.094;14.338;2023-07-24T12:19:23;96958.70;;;28.60;25.46
77893;BME280;67087;50.094;14.338;2023-07-24T12:21:49;96957.10;;;28.74;25.29
77893;BME280;67087;50.094;14.338;2023-07-24T12:24:14;96947.24;;;28.52;25.42
77893;BME280;67087;50.094;14.338;2023-07-24T12:26:39;96943.15;;;28.28;25.53
77893;BME280;67087;50.094;14.338;2023-07-24T12:29:04;96927.85;;;28.55;25.43
77893;BME280;67087;50.094;14.338;2023-07-24T12:31:30;96921.90;;;28.11;25.43
77893;BME280;67087;50.094;14.338;2023-07-24T12:33:55;96909.62;;;28.58;25.43
77893;BME280;67087;50.094;14.338;2023-07-24T12:36:19;96899.60;;;28.68;25.40
77893;BME280;67087;50.094;14.338;2023-07-24T12:38:45;96901.48;;;28.35;25.52
77893;BME280;67087;50.094;14.338;2023-07-24T12:41:10;96900.59;;;28.77;25.22